Kezdőlap
METAR-TAF:

METAR-TAF

Repülőterek :

Dzaoudzi, Mayotte

földrajzi szélesség: 12-48S, földrajzi hosszúság: 045-17E, magasság: 8 m

Jelenlegi meteorológiai megfigyelések

A jelentés 28 perccel ezelõtt készült, 20:30 UTC
Délnyugati szél 6 kt
Hőmérséklet 26°C
Páratartalom 79%
Légköri nyomás 1014 hPa
Látótávolság 10 km, vagy több
felhőtlen 1500 m magasságban, és nincs gomolyfelhõ

METAR: FMCZ 152030Z AUTO 22006KT CAVOK 26/22 Q1014 NOSIG

Idő: 23:58 (20:58 UTC)

Előrejelzés

A jelentés 3 órával és 58 perccel ezelõtt készült, 17:00 UTC
Az előrejelzés 15-én 18 óra UTC és 16-én 18 óra UTC között érvényes
Dél-délnyugati szél 13 kt
Látótávolság 10 km, vagy több
Szórványos felhőzet 3000 lábon
Szakadozott felhőzet 6000 lábon
16-én 00 óra UTC és 16-én 06 óra UTC között ideiglenes
Látótávolság: 4000 m
Szórványos felhőzet 2000 lábon, Tornyos gomolyfelhő.
záporok,

TAF: FMCZ 151700Z 1518/1618 20013KT 9999 SCT030 BKN060 TEMPO 1600/1606 4000 SHRA SCT020TCU

Meteorológiai megfigyelések és előrejelzések több, mint 4000 repülőtéren (METAR és TAF jelentéseket).

A térképen piros és sárga pontok jelzik az elérhető meteorológiai állomásokat.

Mozgassa az egeret a pont fölött, hogy megjelenjen az állomás neve.

Azután kattintson az időjárási megfigyelések és előrejelzések megtekintéséhez.

A térkép megváltoztatása: kattintson a fekete keresztel jelölt zöld gombra ráközelítéshez, a vonallal jelölt zöld gombra távolításhoz, vagy a zöld nyilakra a szomszédos térképek eléréséhez.


METAR-TAF: